Time;durP1;ratioP1;P1;durP2;ratioP2;P2;SDS_P1;SDS_P2;PMS_P1;PMS_P2;Temp;Humidity;BMP_temperature;BMP_pressure;BME280_temperature;BME280_humidity;BME280_pressure;Samples;Min_cycle;Max_cycle;Signal;HPM_P1;HPM_P2
2022/01/22 09:13:06;;;;;;;9.77;2.58;;;6.20;99.90;;;;;;5050861;28;20434;-61
2022/01/22 09:15:31;;;;;;;14.05;2.85;;;6.30;99.90;;;;;;5049480;28;20449;-62
2022/01/22 09:17:57;;;;;;;13.90;2.75;;;6.30;99.90;;;;;;5050721;28;20049;-64
2022/01/22 09:23:05;;;;;;;17.88;2.92;;;6.40;99.90;;;;;;5049898;28;20096;-62
2022/01/22 09:25:31;;;;;;;12.70;2.65;;;6.40;99.90;;;;;;5050453;28;20126;-62
2022/01/22 09:27:57;;;;;;;10.05;2.45;;;6.40;99.90;;;;;;5049527;28;20227;-63
2022/01/22 09:30:24;;;;;;;12.00;2.28;;;6.40;99.90;;;;;;5050999;28;20064;-62
2022/01/22 09:32:49;;;;;;;;;;;6.40;99.90;;;;;;5050419;28;20379;-63
2022/01/22 09:35:15;;;;;;;13.80;2.17;;;6.40;99.90;;;;;;5050293;28;19927;-62
2022/01/22 09:37:42;;;;;;;11.75;2.03;;;6.50;99.90;;;;;;5049369;28;20123;-61
2022/01/22 09:40:08;;;;;;;14.45;2.83;;;6.60;99.90;;;;;;5050272;28;20499;-62
2022/01/22 09:42:34;;;;;;;;;;;6.50;99.90;;;;;;5050474;28;20073;-61
2022/01/22 09:44:59;;;;;;;10.73;1.92;;;6.60;99.90;;;;;;5050104;28;19974;-62
2022/01/22 09:47:26;;;;;;;13.02;2.38;;;6.60;99.90;;;;;;5050424;28;20049;-61
2022/01/22 09:49:51;;;;;;;11.30;1.90;;;6.60;99.90;;;;;;5050571;28;20045;-62
2022/01/22 09:52:18;;;;;;;9.82;2.03;;;6.60;99.90;;;;;;5049708;28;20041;-63
2022/01/22 09:54:44;;;;;;;9.60;2.28;;;6.60;99.90;;;;;;5049815;28;20056;-62
2022/01/22 09:57:10;;;;;;;11.32;2.22;;;6.70;99.90;;;;;;5049923;28;20049;-62
2022/01/22 09:59:36;;;;;;;11.30;2.50;;;6.60;99.90;;;;;;5050202;28;20049;-62
2022/01/22 10:02:19;;;;;;;12.77;2.40;;;6.60;99.90;;;;;;5049791;28;20578;-62
2022/01/22 10:04:48;;;;;;;9.25;1.88;;;6.70;99.90;;;;;;5050011;28;20498;-62
2022/01/22 10:07:21;;;;;;;11.40;2.25;;;6.70;99.90;;;;;;5050110;28;20060;-62
2022/01/22 10:10:01;;;;;;;12.15;2.08;;;6.80;99.90;;;;;;5049742;28;20103;-62
2022/01/22 10:12:29;;;;;;;8.90;2.10;;;6.80;99.90;;;;;;5045360;28;20069;-62
2022/01/22 10:15:06;;;;;;;10.05;2.45;;;6.80;99.90;;;;;;5028628;28;20579;-62
2022/01/22 10:17:42;;;;;;;;;;;6.80;99.90;;;;;;5024627;28;20106;-62
2022/01/22 10:20:26;;;;;;;10.43;2.22;;;6.80;99.90;;;;;;5033590;28;19925;-62
2022/01/22 10:23:04;;;;;;;10.77;2.63;;;6.80;99.90;;;;;;5036102;28;20192;-61
2022/01/22 10:25:36;;;;;;;12.27;3.03;;;6.80;99.90;;;;;;5032980;28;20046;-61
2022/01/22 10:28:10;;;;;;;18.75;4.85;;;6.80;99.90;;;;;;5024857;28;20152;-62
2022/01/22 10:30:40;;;;;;;21.33;6.40;;;6.80;99.90;;;;;;5024853;28;20050;-62
2022/01/22 10:33:28;;;;;;;23.02;6.30;;;6.80;99.90;;;;;;5024368;28;20492;-61
2022/01/22 10:36:17;;;;;;;21.20;6.15;;;6.90;99.90;;;;;;5025586;28;20434;-61
2022/01/22 10:38:54;;;;;;;22.80;6.50;;;6.90;99.90;;;;;;5033173;28;20060;-61
2022/01/22 10:41:41;;;;;;;21.08;6.70;;;6.80;99.90;;;;;;5024843;28;20392;-62
2022/01/22 10:44:10;;;;;;;46.67;8.45;;;6.80;99.90;;;;;;5026080;28;20399;-62
2022/01/22 10:49:12;;;;;;;18.98;5.38;;;6.80;99.90;;;;;;5025528;28;20111;-62
2022/01/22 10:51:48;;;;;;;19.23;5.22;;;6.90;99.90;;;;;;5024143;28;20049;-63
2022/01/22 10:54:14;;;;;;;17.52;4.72;;;6.90;99.90;;;;;;5023312;28;20132;-62
2022/01/22 10:56:41;;;;;;;15.02;3.85;;;6.90;99.90;;;;;;5024243;28;20045;-61
2022/01/22 10:59:12;;;;;;;16.42;3.58;;;6.90;99.90;;;;;;5025223;28;20109;-63
2022/01/22 11:01:56;;;;;;;14.27;3.42;;;6.90;99.90;;;;;;5025985;28;20045;-62
2022/01/22 11:04:23;;;;;;;23.83;3.95;;;6.90;99.90;;;;;;5023323;28;20045;-61
2022/01/22 11:07:05;;;;;;;20.92;4.13;;;6.90;99.90;;;;;;5025194;28;20080;-62
2022/01/22 11:09:32;;;;;;;17.05;4.80;;;6.90;99.90;;;;;;5025184;28;20137;-62
2022/01/22 11:12:00;;;;;;;16.25;3.85;;;6.90;99.90;;;;;;5022210;28;20120;-61
2022/01/22 11:14:28;;;;;;;16.25;5.57;;;6.90;99.90;;;;;;5025429;28;20057;-62
2022/01/22 11:16:55;;;;;;;18.55;3.85;;;6.90;99.90;;;;;;5024212;28;20079;-62
2022/01/22 11:19:30;;;;;;;15.07;3.55;;;7.00;99.90;;;;;;5022641;28;20113;-61
2022/01/22 11:21:57;;;;;;;14.33;3.37;;;7.00;99.90;;;;;;5023984;28;20069;-62
2022/01/22 11:24:24;;;;;;;;;;;7.00;99.90;;;;;;5024869;28;20045;-62
2022/01/22 11:26:54;;;;;;;;;;;7.00;99.90;;;;;;5025027;28;19921;-62
2022/01/22 11:29:27;;;;;;;11.80;2.88;;;7.00;99.90;;;;;;5022291;28;19928;-61
2022/01/22 11:31:53;;;;;;;10.00;2.47;;;7.00;99.90;;;;;;5024235;28;20195;-61
2022/01/22 11:34:24;;;;;;;14.25;2.50;;;7.00;99.90;;;;;;5025127;28;20045;-61
2022/01/22 11:37:16;;;;;;;10.90;2.15;;;7.00;99.90;;;;;;5024281;28;20400;-62
2022/01/22 11:39:42;;;;;;;11.27;2.30;;;7.00;99.90;;;;;;5024458;28;20131;-62
2022/01/22 11:42:09;;;;;;;8.63;2.17;;;7.00;99.90;;;;;;5023917;28;20508;-62
2022/01/22 11:44:50;;;;;;;12.90;2.70;;;7.00;99.90;;;;;;5024544;28;20046;-61
2022/01/22 11:47:22;;;;;;;16.30;2.40;;;7.00;99.90;;;;;;5023113;28;20053;-61
2022/01/22 11:50:09;;;;;;;8.80;1.92;;;7.10;99.90;;;;;;5023250;28;20046;-62
2022/01/22 11:52:39;;;;;;;;;;;7.10;99.90;;;;;;5023044;28;20050;-62
2022/01/22 11:55:16;;;;;;;9.07;1.80;;;7.10;99.90;;;;;;5014662;28;20287;-63
2022/01/22 11:57:44;;;;;;;11.43;1.90;;;7.10;99.90;;;;;;5013949;28;20046;-62
2022/01/22 12:00:29;;;;;;;12.05;2.30;;;7.10;99.90;;;;;;5014136;28;20145;-63
2022/01/22 12:03:03;;;;;;;9.38;2.17;;;7.10;99.90;;;;;;5013967;28;20399;-63
2022/01/22 12:05:29;;;;;;;13.25;2.03;;;7.00;99.90;;;;;;5014693;28;20116;-63
2022/01/22 12:08:00;;;;;;;11.48;2.53;;;7.10;99.90;;;;;;5019617;28;20049;-64
2022/01/22 12:10:42;;;;;;;10.00;2.20;;;7.10;99.90;;;;;;5015273;28;20073;-63
2022/01/22 12:16:35;;;;;;;6.57;1.30;;;7.00;99.90;;;;;;5015103;28;20396;-63
2022/01/22 12:19:03;;;;;;;8.88;1.52;;;7.00;99.90;;;;;;5014368;28;20054;-63
2022/01/22 12:21:37;;;;;;;9.95;2.00;;;7.00;99.90;;;;;;5013101;28;20124;-63
2022/01/22 12:24:09;;;;;;;8.88;1.52;;;7.00;99.90;;;;;;5014181;28;20056;-63
2022/01/22 12:26:45;;;;;;;9.18;1.42;;;7.00;99.90;;;;;;5014186;28;20108;-62
2022/01/22 12:29:31;;;;;;;8.80;1.80;;;7.00;99.90;;;;;;5014128;28;20045;-63
2022/01/22 12:32:11;;;;;;;11.20;2.20;;;7.00;99.90;;;;;;5014127;28;20281;-63
2022/01/22 12:35:06;;;;;;;11.38;2.33;;;7.00;99.90;;;;;;5013987;28;20481;-64
2022/01/22 12:37:32;;;;;;;9.98;2.30;;;7.10;99.90;;;;;;5014497;28;20119;-63
2022/01/22 12:39:58;;;;;;;9.60;1.90;;;7.10;99.90;;;;;;5014250;28;20555;-63
2022/01/22 12:43:00;;;;;;;12.15;2.30;;;7.10;99.90;;;;;;5013873;28;20042;-62
2022/01/22 12:45:26;;;;;;;16.45;4.68;;;7.10;99.90;;;;;;5013838;28;20042;-63
2022/01/22 12:47:54;;;;;;;22.35;7.57;;;7.10;99.90;;;;;;5013876;28;20053;-63
2022/01/22 12:50:33;;;;;;;32.35;11.75;;;7.10;99.90;;;;;;5013738;28;20046;-63
2022/01/22 12:53:03;;;;;;;17.23;4.28;;;7.00;99.90;;;;;;5013748;28;20065;-62
2022/01/22 12:58:36;;;;;;;12.68;2.45;;;7.00;99.90;;;;;;5014449;28;20185;-62
2022/01/22 13:01:18;;;;;;;9.18;2.40;;;7.00;99.90;;;;;;5014268;28;20395;-62
2022/01/22 13:03:50;;;;;;;12.93;3.15;;;7.00;99.90;;;;;;5013668;28;20092;-62
2022/01/22 13:06:18;;;;;;;10.32;2.05;;;7.00;99.90;;;;;;5012704;28;20061;-63
2022/01/22 13:08:43;;;;;;;11.00;2.17;;;7.00;99.90;;;;;;5013754;28;20400;-62
2022/01/22 13:11:11;;;;;;;13.57;2.30;;;6.90;99.90;;;;;;5014035;28;20050;-63
2022/01/22 13:13:39;;;;;;;15.27;2.30;;;7.00;99.90;;;;;;5013691;28;20093;-64
2022/01/22 13:16:11;;;;;;;6.82;1.17;;;7.00;99.90;;;;;;5012955;28;20046;-62
2022/01/22 13:18:57;;;;;;;7.45;1.65;;;7.00;99.90;;;;;;5013565;28;20053;-62
2022/01/22 13:21:25;;;;;;;8.13;1.90;;;7.00;99.90;;;;;;5013270;28;20046;-62
2022/01/22 13:24:02;;;;;;;7.82;1.48;;;7.00;99.90;;;;;;5013532;28;20057;-62
2022/01/22 13:26:45;;;;;;;10.77;2.10;;;7.00;99.90;;;;;;5013572;28;20535;-63
2022/01/22 13:29:34;;;;;;;7.15;3.40;;;7.00;99.90;;;;;;5013571;28;20123;-63
2022/01/22 13:32:04;;;;;;;11.88;3.20;;;7.00;99.90;;;;;;5012474;28;20535;-62
2022/01/22 13:34:47;;;;;;;8.60;2.15;;;7.00;99.90;;;;;;5012991;28;20076;-63
2022/01/22 13:45:26;;;;;;;9.85;2.30;;;6.90;99.90;;;;;;5013579;28;20523;-62
2022/01/22 13:47:56;;;;;;;11.70;2.30;;;6.90;99.90;;;;;;5034687;28;20053;-62
2022/01/22 13:50:22;;;;;;;10.55;2.15;;;6.90;99.90;;;;;;5020536;28;20046;-62
2022/01/22 13:52:49;;;;;;;;;;;6.90;99.90;;;;;;5017931;28;20051;-62
2022/01/22 13:55:15;;;;;;;8.00;1.63;;;6.90;99.90;;;;;;5015683;28;19921;-62
2022/01/22 13:57:44;;;;;;;;;;;6.80;99.90;;;;;;5017240;28;20385;-62
2022/01/22 14:00:15;;;;;;;6.47;1.80;;;6.80;99.90;;;;;;5017205;28;19946;-62
2022/01/22 14:05:29;;;;;;;12.20;2.60;;;6.80;99.90;;;;;;5016840;28;20061;-62
2022/01/22 14:08:00;;;;;;;;;;;6.80;99.90;;;;;;5017072;28;20038;-62
2022/01/22 14:10:27;;;;;;;8.52;3.10;;;6.80;99.90;;;;;;5016675;28;19921;-63
2022/01/22 14:13:07;;;;;;;8.48;2.22;;;6.80;99.90;;;;;;5016146;28;20112;-62
2022/01/22 14:15:45;;;;;;;12.27;2.35;;;6.80;99.90;;;;;;5016706;28;20136;-62
2022/01/22 14:20:47;;;;;;;8.70;1.65;;;6.80;99.90;;;;;;5016436;28;20093;-61
2022/01/22 14:23:17;;;;;;;16.58;2.40;;;6.80;99.90;;;;;;5016680;28;20050;-62
2022/01/22 14:26:08;;;;;;;19.38;2.10;;;6.80;99.90;;;;;;5016286;28;20499;-62
2022/01/22 14:28:45;;;;;;;10.63;2.00;;;6.80;99.90;;;;;;5016495;28;20422;-62
2022/01/22 14:31:17;;;;;;;11.73;2.03;;;6.80;99.90;;;;;;5016250;28;20084;-62
2022/01/22 14:33:42;;;;;;;11.55;1.83;;;6.70;99.90;;;;;;5016206;28;20056;-61
2022/01/22 14:36:08;;;;;;;9.32;2.22;;;6.70;99.90;;;;;;5015098;28;20057;-62
2022/01/22 14:38:43;;;;;;;7.97;2.00;;;6.70;99.90;;;;;;5016127;28;20057;-62
2022/01/22 14:46:48;;;;;;;6.95;1.88;;;6.70;99.90;;;;;;5016656;28;20061;-62
2022/01/22 14:49:15;;;;;;;7.88;1.80;;;6.70;99.90;;;;;;5017313;28;20054;-61
2022/01/22 14:51:40;;;;;;;14.55;2.10;;;6.70;99.90;;;;;;5023330;28;20446;-62
2022/01/22 14:54:06;;;;;;;10.13;1.88;;;6.70;99.90;;;;;;5034282;28;20088;-62
2022/01/22 14:56:32;;;;;;;11.45;2.42;;;6.70;99.90;;;;;;5022401;28;20125;-61
2022/01/22 14:58:58;;;;;;;10.80;2.08;;;6.70;99.90;;;;;;5014718;28;20133;-63
2022/01/22 15:01:23;;;;;;;12.82;2.17;;;6.60;99.90;;;;;;5015711;28;20479;-62
2022/01/22 15:03:49;;;;;;;8.75;2.30;;;6.60;99.90;;;;;;5015430;28;20072;-62
2022/01/22 15:06:15;;;;;;;8.95;2.08;;;6.50;99.90;;;;;;5034673;28;20136;-62
2022/01/22 15:08:40;;;;;;;13.00;2.80;;;6.50;99.90;;;;;;5022463;28;20100;-62
2022/01/22 15:11:06;;;;;;;5.13;1.58;;;6.50;99.90;;;;;;5015579;28;20045;-62
2022/01/22 15:13:33;;;;;;;8.20;1.65;;;6.50;99.90;;;;;;5015864;28;20119;-62
2022/01/22 15:16:01;;;;;;;5.28;1.30;;;6.50;99.90;;;;;;5015461;28;20120;-62
2022/01/22 15:18:50;;;;;;;8.65;2.25;;;6.50;99.90;;;;;;5014168;28;20464;-61
2022/01/22 15:21:13;;;;;;;3.95;1.40;;;6.40;99.90;;;;;;5031253;28;20056;-62
2022/01/22 15:23:39;;;;;;;6.95;1.40;;;6.30;99.90;;;;;;5035440;28;20072;-64
2022/01/22 15:26:06;;;;;;;;;;;6.30;99.90;;;;;;5035333;28;20049;-62
2022/01/22 15:28:42;;;;;;;4.10;1.53;;;6.30;99.90;;;;;;5035129;28;20392;-63
2022/01/22 15:34:15;;;;;;;5.43;2.05;;;6.30;99.90;;;;;;5020890;28;20057;-63
2022/01/22 15:36:46;;;;;;;4.55;1.60;;;6.30;99.90;;;;;;5029407;28;20541;-61
2022/01/22 15:39:12;;;;;;;6.65;1.98;;;6.30;99.90;;;;;;5035332;28;20045;-61
2022/01/22 15:41:38;;;;;;;;;;;6.30;99.90;;;;;;5035648;28;20132;-62
2022/01/22 15:44:08;;;;;;;6.72;2.95;;;6.30;99.90;;;;;;5031019;28;20004;-61
2022/01/22 15:46:37;;;;;;;7.43;2.85;;;6.30;99.90;;;;;;5014839;28;20081;-61
2022/01/22 17:55:51;;;;;;;10.20;3.13;;;6.00;99.90;;;;;;4845372;23;20137;-68
2022/01/22 17:58:18;;;;;;;11.90;2.50;;;6.00;99.90;;;;;;4997854;28;20054;-69
2022/01/22 18:00:46;;;;;;;9.13;2.60;;;5.90;99.90;;;;;;4999001;28;20041;-69
2022/01/22 18:03:12;;;;;;;11.48;3.03;;;5.90;99.90;;;;;;4983193;28;20050;-70
2022/01/22 18:05:38;;;;;;;11.57;3.50;;;6.00;99.90;;;;;;5031862;28;20054;-69
2022/01/22 18:08:03;;;;;;;8.18;3.05;;;6.00;99.90;;;;;;5019144;28;20483;-68
2022/01/22 18:10:32;;;;;;;7.28;2.75;;;6.00;99.90;;;;;;5019685;28;20103;-70
2022/01/22 18:12:58;;;;;;;10.43;2.92;;;6.20;99.90;;;;;;5013489;28;20443;-70
2022/01/22 18:15:23;;;;;;;15.30;3.40;;;6.00;99.90;;;;;;5017165;28;20056;-69
2022/01/22 18:17:49;;;;;;;5.47;2.63;;;6.00;99.90;;;;;;4998992;28;20092;-69
2022/01/22 18:20:15;;;;;;;11.68;2.80;;;6.00;99.90;;;;;;4999302;28;20038;-69
2022/01/22 18:22:41;;;;;;;12.98;2.70;;;6.00;99.90;;;;;;4998923;28;20049;-68
2022/01/22 18:25:07;;;;;;;7.40;3.05;;;6.00;99.90;;;;;;4999140;28;20132;-68
2022/01/22 18:27:32;;;;;;;10.95;3.47;;;6.00;99.90;;;;;;4999169;28;20077;-68
2022/01/22 18:29:58;;;;;;;10.25;3.90;;;6.10;99.90;;;;;;4999256;28;20472;-68
2022/01/22 18:32:24;;;;;;;10.57;3.83;;;6.10;99.90;;;;;;5016321;28;20045;-68
2022/01/22 18:34:49;;;;;;;11.85;4.30;;;6.10;99.90;;;;;;4997032;28;20088;-69
2022/01/22 18:37:15;;;;;;;9.80;5.00;;;6.00;99.90;;;;;;5015648;28;20046;-67
2022/01/22 18:39:41;;;;;;;12.90;5.05;;;6.10;99.90;;;;;;4998821;28;20049;-68
2022/01/22 18:42:07;;;;;;;8.30;4.05;;;6.00;99.90;;;;;;4999256;28;20444;-68
2022/01/22 18:44:33;;;;;;;10.27;3.80;;;6.00;99.90;;;;;;4999355;28;20088;-68
2022/01/22 18:46:58;;;;;;;10.52;3.50;;;6.00;99.90;;;;;;5016092;28;20081;-68
2022/01/22 18:49:24;;;;;;;10.80;3.17;;;6.00;99.90;;;;;;5004738;28;20483;-68
2022/01/22 18:51:59;;;;;;;8.30;3.17;;;6.00;99.90;;;;;;4998192;28;20045;-68
2022/01/22 18:54:25;;;;;;;10.15;3.13;;;5.90;99.90;;;;;;4999047;28;20056;-69
2022/01/22 18:56:50;;;;;;;10.98;3.72;;;6.00;99.90;;;;;;5016149;28;20399;-68
2022/01/22 18:59:16;;;;;;;9.80;3.67;;;5.90;99.90;;;;;;5015904;28;20045;-68
2022/01/22 19:01:43;;;;;;;11.65;3.60;;;6.00;99.90;;;;;;4998323;28;20102;-68
2022/01/22 19:04:15;;;;;;;9.32;3.70;;;6.00;99.90;;;;;;4994904;28;20042;-68
2022/01/22 19:06:41;;;;;;;14.20;4.13;;;6.00;99.90;;;;;;4987197;28;20053;-69
2022/01/22 19:09:07;;;;;;;9.68;3.75;;;5.90;99.90;;;;;;4987424;28;20033;-67
2022/01/22 19:11:34;;;;;;;9.30;3.53;;;5.90;99.90;;;;;;4990386;28;20463;-68
2022/01/22 19:14:00;;;;;;;14.02;3.72;;;6.00;99.90;;;;;;4990040;28;20105;-68
2022/01/22 19:16:26;;;;;;;11.25;3.63;;;6.00;99.90;;;;;;5004098;28;20038;-68
2022/01/22 19:18:52;;;;;;;11.50;4.03;;;6.00;99.90;;;;;;4987602;28;20101;-68
2022/01/22 19:21:23;;;;;;;14.88;4.35;;;6.00;99.90;;;;;;4989788;28;20396;-70
2022/01/22 19:24:01;;;;;;;10.88;4.03;;;6.00;99.90;;;;;;4989678;28;20057;-69
2022/01/22 19:29:11;;;;;;;9.25;4.03;;;6.00;99.90;;;;;;4986561;28;20392;-68
2022/01/22 19:31:37;;;;;;;10.45;3.80;;;6.00;99.90;;;;;;4983213;28;20046;-68
2022/01/22 19:34:04;;;;;;;8.00;3.85;;;5.90;99.90;;;;;;4968397;28;20050;-69
2022/01/22 19:36:33;;;;;;;7.95;3.50;;;6.10;99.90;;;;;;4989118;28;20058;-67
2022/01/22 19:38:59;;;;;;;11.00;4.30;;;6.00;99.90;;;;;;4986842;28;20054;-67
2022/01/22 19:41:26;;;;;;;8.02;3.92;;;6.00;99.90;;;;;;5004708;28;20125;-68
2022/01/22 19:44:00;;;;;;;10.07;3.97;;;6.00;99.90;;;;;;5014400;28;20399;-68
2022/01/22 19:46:27;;;;;;;11.85;4.43;;;6.00;99.90;;;;;;5014492;28;20395;-68
2022/01/22 19:48:55;;;;;;;10.95;4.22;;;5.90;99.90;;;;;;4996775;28;20046;-68
2022/01/22 19:51:22;;;;;;;9.23;3.83;;;6.00;99.90;;;;;;4978394;28;20112;-69
2022/01/22 19:53:48;;;;;;;8.50;3.70;;;6.00;99.90;;;;;;4962050;28;20081;-68
2022/01/22 19:56:14;;;;;;;12.43;3.97;;;6.00;99.90;;;;;;4977264;28;20492;-68
2022/01/22 19:58:40;;;;;;;9.60;3.67;;;6.00;99.90;;;;;;4978014;28;20050;-69
2022/01/22 20:01:08;;;;;;;15.75;3.85;;;6.00;99.90;;;;;;4977624;28;20050;-68
2022/01/22 20:03:33;;;;;;;9.80;3.67;;;6.00;99.90;;;;;;4977867;28;20132;-68
2022/01/22 20:05:59;;;;;;;13.45;4.00;;;6.00;99.90;;;;;;4978324;28;20097;-68
2022/01/22 20:08:25;;;;;;;13.82;4.18;;;6.10;99.90;;;;;;4978119;28;20496;-68
2022/01/22 20:10:53;;;;;;;17.40;4.40;;;6.00;99.90;;;;;;4994982;28;20060;-68
2022/01/22 20:13:24;;;;;;;11.45;4.05;;;5.90;99.90;;;;;;4977710;28;20058;-68
2022/01/22 20:15:51;;;;;;;16.70;6.32;;;6.00;99.90;;;;;;4977924;28;20133;-69
2022/01/22 20:18:17;;;;;;;15.15;7.57;;;6.00;99.90;;;;;;4977513;28;20445;-67
2022/01/22 20:20:43;;;;;;;17.88;6.53;;;6.00;99.90;;;;;;4977370;28;20050;-67
2022/01/22 20:23:10;;;;;;;14.82;6.85;;;6.00;99.90;;;;;;4987964;28;20499;-69
2022/01/22 20:25:40;;;;;;;12.10;4.95;;;6.00;99.90;;;;;;5003498;28;20054;-68
2022/01/22 20:28:06;;;;;;;13.77;5.22;;;6.00;99.90;;;;;;4997734;28;20050;-69
2022/01/22 20:30:33;;;;;;;13.50;4.85;;;6.00;99.90;;;;;;4994000;28;20050;-69
2022/01/22 20:33:00;;;;;;;13.07;4.20;;;6.00;99.90;;;;;;4994480;28;20045;-69
2022/01/22 20:35:27;;;;;;;11.93;4.60;;;6.00;99.90;;;;;;4977700;28;20092;-68
2022/01/22 20:37:54;;;;;;;11.13;4.40;;;6.00;99.90;;;;;;4993955;28;20050;-70
2022/01/22 20:40:20;;;;;;;14.07;4.60;;;6.00;99.90;;;;;;4977306;28;20054;-70
2022/01/22 20:42:45;;;;;;;11.00;4.13;;;6.00;99.90;;;;;;4961083;28;20049;-70
2022/01/22 20:45:13;;;;;;;13.27;4.53;;;6.00;99.90;;;;;;4977503;28;20057;-69
2022/01/22 20:47:50;;;;;;;12.40;4.32;;;6.00;99.90;;;;;;4961003;28;20146;-70
2022/01/22 20:50:18;;;;;;;;;;;6.00;99.90;;;;;;4986268;28;20104;-69
2022/01/22 20:52:44;;;;;;;13.95;5.07;;;6.00;99.90;;;;;;4993581;28;19921;-68
2022/01/22 20:55:10;;;;;;;16.08;5.82;;;6.00;99.90;;;;;;4994030;28;20512;-68
2022/01/22 20:57:38;;;;;;;16.42;5.88;;;6.00;99.90;;;;;;4994004;28;20046;-68
2022/01/22 21:00:06;;;;;;;11.85;4.78;;;6.00;99.90;;;;;;4993238;28;20057;-68
2022/01/22 21:02:33;;;;;;;15.02;5.63;;;6.00;99.90;;;;;;4993991;28;20054;-69
2022/01/22 21:05:01;;;;;;;16.30;5.03;;;6.10;99.90;;;;;;4994048;28;20500;-69
2022/01/22 21:07:28;;;;;;;12.57;5.45;;;6.10;99.90;;;;;;4980274;28;20054;-68
2022/01/22 21:09:55;;;;;;;12.68;5.20;;;6.10;99.90;;;;;;4994141;28;20469;-68
2022/01/22 21:12:20;;;;;;;11.68;5.53;;;6.10;99.90;;;;;;4994134;28;20112;-68
2022/01/22 21:14:46;;;;;;;14.90;5.30;;;6.10;99.90;;;;;;5010111;28;20050;-68
2022/01/22 21:17:13;;;;;;;12.63;5.03;;;6.10;99.90;;;;;;4994186;28;20047;-67
2022/01/22 21:19:40;;;;;;;13.27;4.85;;;6.10;99.90;;;;;;5009449;28;20058;-68
2022/01/22 21:22:06;;;;;;;14.13;4.90;;;6.10;99.90;;;;;;4993978;28;20148;-68
2022/01/22 21:24:32;;;;;;;15.00;5.32;;;6.10;99.90;;;;;;5009279;28;20481;-68
2022/01/22 21:26:59;;;;;;;11.82;4.90;;;6.10;99.90;;;;;;4994050;28;20128;-67
2022/01/22 21:29:27;;;;;;;15.02;4.65;;;6.00;99.90;;;;;;4976826;28;20057;-67
2022/01/22 21:31:55;;;;;;;11.20;4.40;;;6.10;99.90;;;;;;4993917;28;20054;-67
2022/01/22 21:34:22;;;;;;;11.75;4.45;;;6.00;99.90;;;;;;4994609;28;20366;-68
2022/01/22 21:39:50;;;;;;;10.75;4.45;;;6.10;99.90;;;;;;4977020;28;20073;-68
2022/01/22 21:42:20;;;;;;;9.93;4.38;;;6.10;99.90;;;;;;4976582;28;20443;-67
2022/01/22 21:44:48;;;;;;;13.10;4.38;;;6.10;99.90;;;;;;4994199;28;20046;-68
2022/01/22 21:47:13;;;;;;;13.50;4.53;;;6.10;99.90;;;;;;4998974;28;20113;-67
2022/01/22 21:49:39;;;;;;;16.08;4.68;;;6.10;99.90;;;;;;5009801;28;20117;-68
2022/01/22 21:52:06;;;;;;;11.13;5.20;;;6.10;99.90;;;;;;4985395;28;20077;-67
2022/01/22 21:54:32;;;;;;;11.77;4.72;;;6.10;99.90;;;;;;4992197;28;20385;-68
2022/01/22 21:56:57;;;;;;;;;;;6.10;99.90;;;;;;4987737;28;20057;-67
